sensor_id;sensor_type;location;lat;lon;timestamp;P1;durP1;ratioP1;P2;durP2;ratioP2
7941;SDS011;4016;50.758;7.150;2024-03-08T00:04:40;14.73;;;12.13;;
7941;SDS011;4016;50.758;7.150;2024-03-08T00:09:41;17.47;;;12.70;;
7941;SDS011;4016;50.758;7.150;2024-03-08T00:14:41;18.63;;;12.57;;
7941;SDS011;4016;50.758;7.150;2024-03-08T00:19:41;18.23;;;12.60;;
7941;SDS011;4016;50.758;7.150;2024-03-08T00:24:42;18.73;;;12.27;;
7941;SDS011;4016;50.758;7.150;2024-03-08T00:29:42;16.60;;;11.90;;
7941;SDS011;4016;50.758;7.150;2024-03-08T00:34:43;15.93;;;12.10;;
7941;SDS011;4016;50.758;7.150;2024-03-08T00:39:43;16.00;;;12.83;;
7941;SDS011;4016;50.758;7.150;2024-03-08T00:44:43;20.97;;;11.77;;
7941;SDS011;4016;50.758;7.150;2024-03-08T00:49:44;14.67;;;10.73;;
7941;SDS011;4016;50.758;7.150;2024-03-08T00:54:45;15.93;;;12.47;;
7941;SDS011;4016;50.758;7.150;2024-03-08T00:59:45;18.90;;;12.97;;
7941;SDS011;4016;50.758;7.150;2024-03-08T01:04:45;15.83;;;12.63;;
7941;SDS011;4016;50.758;7.150;2024-03-08T01:09:47;21.17;;;13.13;;
7941;SDS011;4016;50.758;7.150;2024-03-08T01:14:47;20.50;;;14.23;;
7941;SDS011;4016;50.758;7.150;2024-03-08T01:19:48;18.60;;;12.90;;
7941;SDS011;4016;50.758;7.150;2024-03-08T01:24:48;18.13;;;13.00;;
7941;SDS011;4016;50.758;7.150;2024-03-08T01:29:48;17.67;;;12.00;;
7941;SDS011;4016;50.758;7.150;2024-03-08T01:34:49;14.87;;;12.07;;
7941;SDS011;4016;50.758;7.150;2024-03-08T01:39:49;18.53;;;12.47;;
7941;SDS011;4016;50.758;7.150;2024-03-08T01:44:49;16.80;;;12.33;;
7941;SDS011;4016;50.758;7.150;2024-03-08T01:49:51;16.53;;;12.30;;
7941;SDS011;4016;50.758;7.150;2024-03-08T01:54:52;21.00;;;13.80;;
7941;SDS011;4016;50.758;7.150;2024-03-08T01:59:53;17.43;;;12.73;;
7941;SDS011;4016;50.758;7.150;2024-03-08T02:04:55;16.33;;;12.07;;
7941;SDS011;4016;50.758;7.150;2024-03-08T02:09:56;17.50;;;11.40;;
7941;SDS011;4016;50.758;7.150;2024-03-08T02:14:56;21.83;;;13.00;;
7941;SDS011;4016;50.758;7.150;2024-03-08T02:19:56;18.47;;;12.83;;
7941;SDS011;4016;50.758;7.150;2024-03-08T02:24:58;14.17;;;11.40;;
7941;SDS011;4016;50.758;7.150;2024-03-08T02:30:01;17.67;;;12.03;;
7941;SDS011;4016;50.758;7.150;2024-03-08T02:35:01;16.80;;;11.80;;
7941;SDS011;4016;50.758;7.150;2024-03-08T02:40:02;18.13;;;12.53;;
7941;SDS011;4016;50.758;7.150;2024-03-08T02:45:03;18.90;;;12.73;;
7941;SDS011;4016;50.758;7.150;2024-03-08T02:50:05;17.17;;;11.93;;
7941;SDS011;4016;50.758;7.150;2024-03-08T02:55:08;15.40;;;12.13;;
7941;SDS011;4016;50.758;7.150;2024-03-08T03:00:10;16.50;;;11.83;;
7941;SDS011;4016;50.758;7.150;2024-03-08T03:05:11;18.67;;;12.37;;
7941;SDS011;4016;50.758;7.150;2024-03-08T03:10:11;18.60;;;12.37;;
7941;SDS011;4016;50.758;7.150;2024-03-08T03:15:18;19.17;;;12.97;;
7941;SDS011;4016;50.758;7.150;2024-03-08T03:20:19;19.03;;;12.10;;
7941;SDS011;4016;50.758;7.150;2024-03-08T03:25:32;17.57;;;11.47;;
7941;SDS011;4016;50.758;7.150;2024-03-08T03:30:33;18.23;;;12.33;;
7941;SDS011;4016;50.758;7.150;2024-03-08T03:35:34;21.07;;;12.57;;
7941;SDS011;4016;50.758;7.150;2024-03-08T03:40:36;20.33;;;12.57;;
7941;SDS011;4016;50.758;7.150;2024-03-08T03:45:38;18.30;;;12.73;;
7941;SDS011;4016;50.758;7.150;2024-03-08T03:50:39;19.50;;;12.50;;
7941;SDS011;4016;50.758;7.150;2024-03-08T03:55:39;20.03;;;13.37;;
7941;SDS011;4016;50.758;7.150;2024-03-08T04:00:40;22.20;;;13.43;;
7941;SDS011;4016;50.758;7.150;2024-03-08T04:05:40;17.00;;;11.73;;
7941;SDS011;4016;50.758;7.150;2024-03-08T04:10:41;19.27;;;12.60;;
7941;SDS011;4016;50.758;7.150;2024-03-08T04:15:43;21.77;;;12.97;;
7941;SDS011;4016;50.758;7.150;2024-03-08T04:20:44;18.40;;;12.20;;
7941;SDS011;4016;50.758;7.150;2024-03-08T04:25:44;18.50;;;12.73;;
7941;SDS011;4016;50.758;7.150;2024-03-08T04:30:45;18.93;;;12.67;;
7941;SDS011;4016;50.758;7.150;2024-03-08T04:35:46;18.03;;;12.03;;
7941;SDS011;4016;50.758;7.150;2024-03-08T04:40:46;18.47;;;13.27;;
7941;SDS011;4016;50.758;7.150;2024-03-08T04:45:46;16.90;;;12.70;;
7941;SDS011;4016;50.758;7.150;2024-03-08T04:50:48;18.53;;;12.20;;
7941;SDS011;4016;50.758;7.150;2024-03-08T04:55:49;17.70;;;12.77;;
7941;SDS011;4016;50.758;7.150;2024-03-08T05:00:49;19.73;;;12.37;;
7941;SDS011;4016;50.758;7.150;2024-03-08T05:05:50;20.13;;;12.30;;
7941;SDS011;4016;50.758;7.150;2024-03-08T05:10:51;24.33;;;14.10;;
7941;SDS011;4016;50.758;7.150;2024-03-08T05:15:51;22.30;;;13.73;;
7941;SDS011;4016;50.758;7.150;2024-03-08T05:20:52;20.10;;;13.37;;
7941;SDS011;4016;50.758;7.150;2024-03-08T05:25:52;18.73;;;12.43;;
7941;SDS011;4016;50.758;7.150;2024-03-08T05:30:52;22.50;;;14.17;;
7941;SDS011;4016;50.758;7.150;2024-03-08T05:35:53;23.60;;;15.07;;
7941;SDS011;4016;50.758;7.150;2024-03-08T05:40:54;23.23;;;14.43;;
7941;SDS011;4016;50.758;7.150;2024-03-08T05:45:54;20.47;;;14.80;;
7941;SDS011;4016;50.758;7.150;2024-03-08T05:50:55;21.43;;;13.57;;
7941;SDS011;4016;50.758;7.150;2024-03-08T05:55:57;23.23;;;13.97;;
7941;SDS011;4016;50.758;7.150;2024-03-08T06:00:59;20.47;;;13.67;;
7941;SDS011;4016;50.758;7.150;2024-03-08T06:05:59;21.23;;;14.37;;
7941;SDS011;4016;50.758;7.150;2024-03-08T06:10:59;20.53;;;13.83;;
7941;SDS011;4016;50.758;7.150;2024-03-08T06:16:02;18.73;;;13.13;;
7941;SDS011;4016;50.758;7.150;2024-03-08T06:21:04;21.53;;;13.77;;
7941;SDS011;4016;50.758;7.150;2024-03-08T06:26:12;22.30;;;14.13;;
7941;SDS011;4016;50.758;7.150;2024-03-08T06:31:12;24.40;;;16.20;;
7941;SDS011;4016;50.758;7.150;2024-03-08T06:36:16;20.50;;;14.17;;
7941;SDS011;4016;50.758;7.150;2024-03-08T06:41:18;22.37;;;14.47;;
7941;SDS011;4016;50.758;7.150;2024-03-08T06:46:19;26.43;;;15.40;;
7941;SDS011;4016;50.758;7.150;2024-03-08T06:51:20;24.03;;;15.37;;
7941;SDS011;4016;50.758;7.150;2024-03-08T06:56:21;20.87;;;14.20;;
7941;SDS011;4016;50.758;7.150;2024-03-08T07:01:22;25.53;;;15.47;;
7941;SDS011;4016;50.758;7.150;2024-03-08T07:06:23;26.23;;;16.37;;
7941;SDS011;4016;50.758;7.150;2024-03-08T07:11:23;26.00;;;15.73;;
7941;SDS011;4016;50.758;7.150;2024-03-08T07:16:23;26.37;;;17.27;;
7941;SDS011;4016;50.758;7.150;2024-03-08T07:21:24;27.10;;;17.00;;
7941;SDS011;4016;50.758;7.150;2024-03-08T07:26:24;25.57;;;16.67;;
7941;SDS011;4016;50.758;7.150;2024-03-08T07:31:25;23.73;;;16.20;;
7941;SDS011;4016;50.758;7.150;2024-03-08T07:36:26;24.93;;;15.60;;
7941;SDS011;4016;50.758;7.150;2024-03-08T07:41:26;23.87;;;16.17;;
7941;SDS011;4016;50.758;7.150;2024-03-08T07:46:27;25.13;;;17.10;;
7941;SDS011;4016;50.758;7.150;2024-03-08T07:51:29;25.50;;;16.23;;
7941;SDS011;4016;50.758;7.150;2024-03-08T07:56:30;25.70;;;15.93;;
7941;SDS011;4016;50.758;7.150;2024-03-08T08:01:31;22.67;;;14.77;;
7941;SDS011;4016;50.758;7.150;2024-03-08T08:06:33;23.30;;;14.73;;
7941;SDS011;4016;50.758;7.150;2024-03-08T08:11:34;25.13;;;15.07;;
7941;SDS011;4016;50.758;7.150;2024-03-08T08:16:35;23.30;;;14.43;;
7941;SDS011;4016;50.758;7.150;2024-03-08T08:21:37;21.83;;;14.57;;
7941;SDS011;4016;50.758;7.150;2024-03-08T08:26:37;19.87;;;15.07;;
7941;SDS011;4016;50.758;7.150;2024-03-08T08:31:38;19.20;;;13.90;;
7941;SDS011;4016;50.758;7.150;2024-03-08T08:36:38;18.00;;;13.13;;
7941;SDS011;4016;50.758;7.150;2024-03-08T08:41:39;19.33;;;13.50;;
7941;SDS011;4016;50.758;7.150;2024-03-08T08:46:41;18.17;;;12.67;;
7941;SDS011;4016;50.758;7.150;2024-03-08T08:51:48;18.13;;;12.83;;
7941;SDS011;4016;50.758;7.150;2024-03-08T08:56:51;16.67;;;13.57;;
7941;SDS011;4016;50.758;7.150;2024-03-08T09:01:51;19.97;;;13.23;;
7941;SDS011;4016;50.758;7.150;2024-03-08T09:06:53;18.37;;;12.47;;
7941;SDS011;4016;50.758;7.150;2024-03-08T09:11:54;15.03;;;11.67;;
7941;SDS011;4016;50.758;7.150;2024-03-08T09:16:54;17.90;;;11.90;;
7941;SDS011;4016;50.758;7.150;2024-03-08T09:21:54;15.87;;;12.13;;
7941;SDS011;4016;50.758;7.150;2024-03-08T09:26:55;15.67;;;12.37;;
7941;SDS011;4016;50.758;7.150;2024-03-08T09:31:55;15.40;;;11.47;;
7941;SDS011;4016;50.758;7.150;2024-03-08T09:36:55;13.47;;;10.77;;
7941;SDS011;4016;50.758;7.150;2024-03-08T09:41:56;14.97;;;11.70;;
7941;SDS011;4016;50.758;7.150;2024-03-08T09:46:57;14.43;;;11.13;;
7941;SDS011;4016;50.758;7.150;2024-03-08T09:51:59;14.20;;;11.30;;
7941;SDS011;4016;50.758;7.150;2024-03-08T09:56:59;14.37;;;10.97;;
7941;SDS011;4016;50.758;7.150;2024-03-08T10:02:02;15.33;;;11.30;;
7941;SDS011;4016;50.758;7.150;2024-03-08T10:07:02;13.37;;;10.13;;
7941;SDS011;4016;50.758;7.150;2024-03-08T10:12:03;13.87;;;10.17;;
7941;SDS011;4016;50.758;7.150;2024-03-08T10:17:05;14.13;;;9.97;;
7941;SDS011;4016;50.758;7.150;2024-03-08T10:22:05;12.97;;;10.47;;
7941;SDS011;4016;50.758;7.150;2024-03-08T10:27:06;14.23;;;10.10;;
7941;SDS011;4016;50.758;7.150;2024-03-08T10:32:07;11.97;;;9.90;;
7941;SDS011;4016;50.758;7.150;2024-03-08T10:37:08;12.50;;;9.77;;
7941;SDS011;4016;50.758;7.150;2024-03-08T10:42:17;12.63;;;9.80;;
7941;SDS011;4016;50.758;7.150;2024-03-08T10:47:26;13.97;;;10.33;;
7941;SDS011;4016;50.758;7.150;2024-03-08T10:52:32;14.07;;;10.17;;
7941;SDS011;4016;50.758;7.150;2024-03-08T10:57:34;14.30;;;10.57;;
7941;SDS011;4016;50.758;7.150;2024-03-08T11:02:38;12.73;;;10.17;;
7941;SDS011;4016;50.758;7.150;2024-03-08T11:07:40;13.23;;;10.07;;
7941;SDS011;4016;50.758;7.150;2024-03-08T11:12:42;13.10;;;10.47;;
7941;SDS011;4016;50.758;7.150;2024-03-08T11:22:52;12.60;;;9.83;;
7941;SDS011;4016;50.758;7.150;2024-03-08T11:28:07;13.07;;;10.23;;
7941;SDS011;4016;50.758;7.150;2024-03-08T11:33:11;12.70;;;9.80;;
7941;SDS011;4016;50.758;7.150;2024-03-08T11:38:15;14.10;;;10.40;;
7941;SDS011;4016;50.758;7.150;2024-03-08T11:43:16;14.53;;;9.60;;
7941;SDS011;4016;50.758;7.150;2024-03-08T11:48:17;11.77;;;9.80;;
7941;SDS011;4016;50.758;7.150;2024-03-08T11:53:17;10.73;;;9.40;;
7941;SDS011;4016;50.758;7.150;2024-03-08T11:58:17;10.77;;;9.07;;
7941;SDS011;4016;50.758;7.150;2024-03-08T12:03:18;11.10;;;8.53;;
7941;SDS011;4016;50.758;7.150;2024-03-08T12:08:18;12.17;;;9.83;;
7941;SDS011;4016;50.758;7.150;2024-03-08T12:13:18;12.20;;;10.27;;
7941;SDS011;4016;50.758;7.150;2024-03-08T12:18:19;12.67;;;9.93;;
7941;SDS011;4016;50.758;7.150;2024-03-08T12:23:19;8.63;;;7.57;;
7941;SDS011;4016;50.758;7.150;2024-03-08T12:28:20;11.97;;;8.97;;
7941;SDS011;4016;50.758;7.150;2024-03-08T12:33:21;11.43;;;8.73;;
7941;SDS011;4016;50.758;7.150;2024-03-08T12:38:22;8.17;;;6.97;;
7941;SDS011;4016;50.758;7.150;2024-03-08T12:43:26;9.97;;;7.70;;
7941;SDS011;4016;50.758;7.150;2024-03-08T12:48:28;10.63;;;8.87;;
7941;SDS011;4016;50.758;7.150;2024-03-08T12:53:28;10.63;;;8.57;;
7941;SDS011;4016;50.758;7.150;2024-03-08T12:58:31;10.07;;;8.40;;
7941;SDS011;4016;50.758;7.150;2024-03-08T13:03:32;9.47;;;8.17;;
7941;SDS011;4016;50.758;7.150;2024-03-08T13:08:32;11.23;;;8.77;;
7941;SDS011;4016;50.758;7.150;2024-03-08T13:13:35;9.60;;;8.03;;
7941;SDS011;4016;50.758;7.150;2024-03-08T13:18:36;10.00;;;8.20;;
7941;SDS011;4016;50.758;7.150;2024-03-08T13:23:37;10.10;;;8.37;;
7941;SDS011;4016;50.758;7.150;2024-03-08T13:28:41;9.37;;;7.67;;
7941;SDS011;4016;50.758;7.150;2024-03-08T13:33:45;9.00;;;7.80;;
7941;SDS011;4016;50.758;7.150;2024-03-08T13:38:47;10.60;;;7.90;;
7941;SDS011;4016;50.758;7.150;2024-03-08T13:43:48;9.97;;;8.03;;
7941;SDS011;4016;50.758;7.150;2024-03-08T13:48:51;9.60;;;8.03;;
7941;SDS011;4016;50.758;7.150;2024-03-08T13:53:53;9.37;;;8.30;;
7941;SDS011;4016;50.758;7.150;2024-03-08T13:58:54;10.53;;;8.80;;
7941;SDS011;4016;50.758;7.150;2024-03-08T14:03:57;10.23;;;8.33;;
7941;SDS011;4016;50.758;7.150;2024-03-08T14:08:57;9.83;;;7.63;;
7941;SDS011;4016;50.758;7.150;2024-03-08T14:13:57;10.30;;;8.27;;
7941;SDS011;4016;50.758;7.150;2024-03-08T14:18:58;8.93;;;7.50;;
7941;SDS011;4016;50.758;7.150;2024-03-08T14:24:03;9.93;;;8.17;;
7941;SDS011;4016;50.758;7.150;2024-03-08T14:29:05;10.10;;;9.00;;
7941;SDS011;4016;50.758;7.150;2024-03-08T14:34:05;9.10;;;8.13;;
7941;SDS011;4016;50.758;7.150;2024-03-08T14:39:07;8.47;;;7.57;;
7941;SDS011;4016;50.758;7.150;2024-03-08T14:44:07;10.83;;;7.73;;
7941;SDS011;4016;50.758;7.150;2024-03-08T14:49:08;11.00;;;8.20;;
7941;SDS011;4016;50.758;7.150;2024-03-08T14:54:08;9.23;;;8.03;;
7941;SDS011;4016;50.758;7.150;2024-03-08T14:59:10;10.17;;;7.93;;
7941;SDS011;4016;50.758;7.150;2024-03-08T15:04:11;9.60;;;8.27;;
7941;SDS011;4016;50.758;7.150;2024-03-08T15:09:11;9.17;;;7.57;;
7941;SDS011;4016;50.758;7.150;2024-03-08T15:14:17;10.17;;;8.77;;
7941;SDS011;4016;50.758;7.150;2024-03-08T15:19:19;9.97;;;8.10;;
7941;SDS011;4016;50.758;7.150;2024-03-08T15:24:20;11.77;;;8.53;;
7941;SDS011;4016;50.758;7.150;2024-03-08T15:29:22;10.13;;;7.73;;
7941;SDS011;4016;50.758;7.150;2024-03-08T15:34:26;9.57;;;8.30;;
7941;SDS011;4016;50.758;7.150;2024-03-08T15:39:26;10.97;;;8.93;;
7941;SDS011;4016;50.758;7.150;2024-03-08T15:44:26;9.67;;;8.63;;
7941;SDS011;4016;50.758;7.150;2024-03-08T15:49:28;11.90;;;8.83;;
7941;SDS011;4016;50.758;7.150;2024-03-08T15:54:28;11.90;;;8.13;;
7941;SDS011;4016;50.758;7.150;2024-03-08T15:59:29;12.00;;;9.57;;
7941;SDS011;4016;50.758;7.150;2024-03-08T16:04:33;10.53;;;8.97;;
7941;SDS011;4016;50.758;7.150;2024-03-08T16:09:34;10.07;;;8.90;;
7941;SDS011;4016;50.758;7.150;2024-03-08T16:14:37;11.37;;;9.10;;
7941;SDS011;4016;50.758;7.150;2024-03-08T16:19:38;12.43;;;9.37;;
7941;SDS011;4016;50.758;7.150;2024-03-08T16:24:42;11.13;;;9.03;;
7941;SDS011;4016;50.758;7.150;2024-03-08T16:29:43;12.03;;;9.03;;
7941;SDS011;4016;50.758;7.150;2024-03-08T16:34:44;10.57;;;9.43;;
7941;SDS011;4016;50.758;7.150;2024-03-08T16:39:45;11.80;;;8.90;;
7941;SDS011;4016;50.758;7.150;2024-03-08T16:44:45;11.07;;;8.40;;
7941;SDS011;4016;50.758;7.150;2024-03-08T16:49:45;12.07;;;9.40;;
7941;SDS011;4016;50.758;7.150;2024-03-08T16:54:46;13.83;;;9.87;;
7941;SDS011;4016;50.758;7.150;2024-03-08T16:59:47;12.80;;;9.30;;
7941;SDS011;4016;50.758;7.150;2024-03-08T17:04:47;15.37;;;10.20;;
7941;SDS011;4016;50.758;7.150;2024-03-08T17:09:48;12.63;;;9.33;;
7941;SDS011;4016;50.758;7.150;2024-03-08T17:14:49;16.07;;;10.23;;
7941;SDS011;4016;50.758;7.150;2024-03-08T17:19:49;13.50;;;9.47;;
7941;SDS011;4016;50.758;7.150;2024-03-08T17:24:50;12.33;;;9.43;;
7941;SDS011;4016;50.758;7.150;2024-03-08T17:29:50;15.27;;;9.77;;
7941;SDS011;4016;50.758;7.150;2024-03-08T17:34:51;11.90;;;9.90;;
7941;SDS011;4016;50.758;7.150;2024-03-08T17:39:52;14.87;;;10.33;;
7941;SDS011;4016;50.758;7.150;2024-03-08T17:44:55;12.50;;;10.07;;
7941;SDS011;4016;50.758;7.150;2024-03-08T17:49:57;15.40;;;10.30;;
7941;SDS011;4016;50.758;7.150;2024-03-08T17:54:57;13.47;;;9.73;;
7941;SDS011;4016;50.758;7.150;2024-03-08T17:59:58;14.77;;;9.80;;
7941;SDS011;4016;50.758;7.150;2024-03-08T18:04:58;16.40;;;10.13;;
7941;SDS011;4016;50.758;7.150;2024-03-08T18:10:00;11.77;;;9.50;;
7941;SDS011;4016;50.758;7.150;2024-03-08T18:15:01;15.20;;;10.10;;
7941;SDS011;4016;50.758;7.150;2024-03-08T18:20:02;15.70;;;11.10;;
7941;SDS011;4016;50.758;7.150;2024-03-08T18:25:02;14.73;;;10.07;;
7941;SDS011;4016;50.758;7.150;2024-03-08T18:30:03;15.03;;;9.97;;
7941;SDS011;4016;50.758;7.150;2024-03-08T18:35:04;14.90;;;10.77;;
7941;SDS011;4016;50.758;7.150;2024-03-08T18:40:08;12.07;;;9.97;;
7941;SDS011;4016;50.758;7.150;2024-03-08T18:45:16;13.60;;;10.53;;
7941;SDS011;4016;50.758;7.150;2024-03-08T18:50:17;14.27;;;10.47;;
7941;SDS011;4016;50.758;7.150;2024-03-08T18:55:20;13.90;;;10.53;;
7941;SDS011;4016;50.758;7.150;2024-03-08T19:00:31;15.90;;;10.80;;
7941;SDS011;4016;50.758;7.150;2024-03-08T19:05:42;15.13;;;10.20;;
7941;SDS011;4016;50.758;7.150;2024-03-08T19:10:46;15.77;;;11.43;;
7941;SDS011;4016;50.758;7.150;2024-03-08T19:15:46;12.97;;;9.40;;
7941;SDS011;4016;50.758;7.150;2024-03-08T19:20:51;13.90;;;10.57;;
7941;SDS011;4016;50.758;7.150;2024-03-08T19:25:51;15.13;;;10.73;;
7941;SDS011;4016;50.758;7.150;2024-03-08T19:30:52;15.43;;;10.90;;
7941;SDS011;4016;50.758;7.150;2024-03-08T19:35:54;14.67;;;10.37;;
7941;SDS011;4016;50.758;7.150;2024-03-08T19:40:54;16.57;;;11.13;;
7941;SDS011;4016;50.758;7.150;2024-03-08T19:45:57;15.43;;;11.63;;
7941;SDS011;4016;50.758;7.150;2024-03-08T19:50:58;17.93;;;11.47;;
7941;SDS011;4016;50.758;7.150;2024-03-08T19:56:05;16.53;;;11.17;;
7941;SDS011;4016;50.758;7.150;2024-03-08T20:01:05;15.43;;;10.93;;
7941;SDS011;4016;50.758;7.150;2024-03-08T20:06:09;17.47;;;10.87;;
7941;SDS011;4016;50.758;7.150;2024-03-08T20:11:10;17.07;;;11.40;;
7941;SDS011;4016;50.758;7.150;2024-03-08T20:16:11;16.30;;;11.07;;
7941;SDS011;4016;50.758;7.150;2024-03-08T20:21:12;15.23;;;10.63;;
7941;SDS011;4016;50.758;7.150;2024-03-08T20:26:13;17.13;;;11.60;;
7941;SDS011;4016;50.758;7.150;2024-03-08T20:31:15;16.30;;;10.50;;
7941;SDS011;4016;50.758;7.150;2024-03-08T20:36:16;14.87;;;10.80;;
7941;SDS011;4016;50.758;7.150;2024-03-08T20:41:17;19.37;;;10.97;;
7941;SDS011;4016;50.758;7.150;2024-03-08T20:46:17;16.30;;;11.40;;
7941;SDS011;4016;50.758;7.150;2024-03-08T20:51:17;16.17;;;11.30;;
7941;SDS011;4016;50.758;7.150;2024-03-08T20:56:19;16.00;;;10.43;;
7941;SDS011;4016;50.758;7.150;2024-03-08T21:01:20;16.27;;;11.30;;
7941;SDS011;4016;50.758;7.150;2024-03-08T21:06:20;15.47;;;10.50;;
7941;SDS011;4016;50.758;7.150;2024-03-08T21:11:21;15.07;;;10.63;;
7941;SDS011;4016;50.758;7.150;2024-03-08T21:16:23;16.93;;;11.27;;
7941;SDS011;4016;50.758;7.150;2024-03-08T21:21:23;18.27;;;11.00;;
7941;SDS011;4016;50.758;7.150;2024-03-08T21:26:25;16.33;;;10.77;;
7941;SDS011;4016;50.758;7.150;2024-03-08T21:31:26;17.33;;;10.57;;
7941;SDS011;4016;50.758;7.150;2024-03-08T21:36:27;15.27;;;10.40;;
7941;SDS011;4016;50.758;7.150;2024-03-08T21:41:29;16.03;;;10.73;;
7941;SDS011;4016;50.758;7.150;2024-03-08T21:46:29;14.67;;;10.63;;
7941;SDS011;4016;50.758;7.150;2024-03-08T21:51:30;14.33;;;9.27;;
7941;SDS011;4016;50.758;7.150;2024-03-08T21:56:30;13.00;;;10.20;;
7941;SDS011;4016;50.758;7.150;2024-03-08T22:01:31;12.97;;;9.37;;
7941;SDS011;4016;50.758;7.150;2024-03-08T22:06:34;13.67;;;9.10;;
7941;SDS011;4016;50.758;7.150;2024-03-08T22:11:35;11.90;;;8.33;;
7941;SDS011;4016;50.758;7.150;2024-03-08T22:16:36;11.97;;;8.80;;
7941;SDS011;4016;50.758;7.150;2024-03-08T22:21:38;11.10;;;8.80;;
7941;SDS011;4016;50.758;7.150;2024-03-08T22:26:40;10.43;;;7.83;;
7941;SDS011;4016;50.758;7.150;2024-03-08T22:31:41;12.17;;;8.83;;
7941;SDS011;4016;50.758;7.150;2024-03-08T22:36:41;11.23;;;8.90;;
7941;SDS011;4016;50.758;7.150;2024-03-08T22:41:41;12.30;;;8.80;;
7941;SDS011;4016;50.758;7.150;2024-03-08T22:46:42;11.43;;;8.13;;
7941;SDS011;4016;50.758;7.150;2024-03-08T22:51:42;11.30;;;8.10;;
7941;SDS011;4016;50.758;7.150;2024-03-08T22:56:43;11.40;;;8.70;;
7941;SDS011;4016;50.758;7.150;2024-03-08T23:01:43;13.17;;;8.60;;
7941;SDS011;4016;50.758;7.150;2024-03-08T23:06:45;12.03;;;7.97;;
7941;SDS011;4016;50.758;7.150;2024-03-08T23:11:45;11.60;;;9.00;;
7941;SDS011;4016;50.758;7.150;2024-03-08T23:16:46;13.63;;;8.83;;
7941;SDS011;4016;50.758;7.150;2024-03-08T23:21:49;11.53;;;8.33;;
7941;SDS011;4016;50.758;7.150;2024-03-08T23:26:50;10.73;;;8.23;;
7941;SDS011;4016;50.758;7.150;2024-03-08T23:31:51;11.27;;;8.13;;
7941;SDS011;4016;50.758;7.150;2024-03-08T23:36:51;10.83;;;8.20;;
7941;SDS011;4016;50.758;7.150;2024-03-08T23:41:52;12.00;;;8.07;;
7941;SDS011;4016;50.758;7.150;2024-03-08T23:46:53;10.77;;;8.17;;
7941;SDS011;4016;50.758;7.150;2024-03-08T23:51:53;11.33;;;8.67;;
7941;SDS011;4016;50.758;7.150;2024-03-08T23:56:54;13.00;;;8.73;;
